Share

Aredale, IA

Beeds Addition (KIAHAMPT3) Elev 1135 ft | 42.74 °N, 93.20 °W | Change Station

Current weather conditions updated 0 second ago

Overcast
Overcast
53.4 °F
Feels Like 53.4 °F
N
12.1
Wind Variable Wind from SE
Gusts 13.0 mph
Sunrise 6:28 AM
Sunset 7:55 PM
Moon Waning Gibbous

Tomorrow is forecast to be Much Cooler than today.

Pressure 29.79 in
Visibility 10.0 miles
Clouds Overcast 7500 ft
Dew Point 41 °F
Humidity 63%
Rainfall 0.00 in
Snow Depth Not available.
UV 0 out of 16
Pollen 8.30 out of 12
Air Quality Not available.
Flu Activity Sporadic
METAR KCCY 170115Z AUTO 14017G23KT 10SM OVC075 11/01 A2979 RMK AO2

More Conditions Fewer Conditions

Pressure 29.79 in
Visibility 10.0 miles
Clouds Overcast 7500 ft
Dew Point 41 °F
Humidity 63%
Rainfall 0.00 in
Snow Depth Not available.
UV 0 out of 16
Pollen 8.30 out of 12
Air Quality Not available.
Flu Activity Sporadic
METAR KCCY 170115Z AUTO 14017G23KT 10SM OVC075 11/01 A2979 RMK AO2

More Conditions Fewer Conditions

10-Day Forecast

Almanac

Astronomy

Apr. 16, 2014 Rise Set
Actual Time 6:28 AM CDT 7:55 PM CDT
Civil Twilight 5:59 AM CDT 8:25 PM CDT
Nautical Twilight 5:23 AM CDT 9:00 PM CDT
Astronomical Twilight 4:45 AM CDT 9:38 PM CDT
Moon 9:42 PM CDT (4/16) 7:15 AM CDT (4/16)
Length of Visible Light 14h 25m
Length of Day
13h 26m
Tomorrow will be 2m 46s longer.
Waning Gibbous, 96% of the Moon is Illuminated
Today
Waning Gibbous
Apr 22
Last Quarter
Apr 29
New
May 6
First Quarter
May 14
Full

Today's Extremes

State Highs State Lows

Community

  • symphony in blue....
    symphony in blue....
  • Dawn Surprise
    Dawn Surprise
  • Yucca delight
    Yucca delight
  • Sunset inside of the Ocean
    Sunset inside of the Ocean
  • Lunar eclipse 15 April 2014
    Lunar eclipse 15 April 2014

WunderPhotos

Upload Photos

1,701,787 photos uploaded!

WunderBlogs® & News

Nearby

Snow Depth

Station Depth Elevation
No new snow has been reported.

Coastal Water Temperatures

Place Temperature
No Stations Reporting

Earthquake Activity

City Distance Mag. Time & Date
No recent earthquake activity has been reported nearby.
Minimum magnitude displayed is 2.5.

Nearby Weather Stations

Station Location Temp. Dew Point Humidity Wind Precip. Elev Updated Type
Beeds Addition, Hampton, IA 53.4 °F 41 °F 63% SE  at  12.1 mph 0.00 in / hr 1135 ft 8:30 PM CDT Rapid Fire
Central Heights, Mason City, IA 51.9 °F 38 °F 59% SSE  at  8.5 mph 0.00 in / hr 1181 ft 8:30 PM CDT Rapid Fire
NorthWestMasonCity, Mason City, IA 51.3 °F 39 °F 63% SW  at  4.0 mph 0.00 in / hr 1135 ft 8:30 PM CDT Rapid Fire

Show More Stations Show Fewer Stations

What do you think?

We're not finished. Please let us know what you like, what you don't like, and what you are still missing.